sensor_id;sensor_type;location;lat;lon;timestamp;P1;durP1;ratioP1;P2;durP2;ratioP2
43363;SDS011;40636;52.424;-1.948;2023-08-08T00:01:09;1.25;;;1.02;;
43363;SDS011;40636;52.424;-1.948;2023-08-08T00:03:36;3.30;;;1.13;;
43363;SDS011;40636;52.424;-1.948;2023-08-08T00:06:03;2.58;;;0.98;;
43363;SDS011;40636;52.424;-1.948;2023-08-08T00:08:31;0.95;;;0.95;;
43363;SDS011;40636;52.424;-1.948;2023-08-08T00:10:58;2.28;;;1.65;;
43363;SDS011;40636;52.424;-1.948;2023-08-08T00:13:24;1.05;;;0.95;;
43363;SDS011;40636;52.424;-1.948;2023-08-08T00:15:51;1.83;;;1.25;;
43363;SDS011;40636;52.424;-1.948;2023-08-08T00:18:18;1.33;;;1.13;;
43363;SDS011;40636;52.424;-1.948;2023-08-08T00:20:45;3.30;;;1.35;;
43363;SDS011;40636;52.424;-1.948;2023-08-08T00:23:11;3.72;;;1.17;;
43363;SDS011;40636;52.424;-1.948;2023-08-08T00:25:38;1.42;;;1.10;;
43363;SDS011;40636;52.424;-1.948;2023-08-08T00:28:05;1.00;;;0.90;;
43363;SDS011;40636;52.424;-1.948;2023-08-08T00:30:31;3.72;;;1.60;;
43363;SDS011;40636;52.424;-1.948;2023-08-08T00:32:58;1.60;;;0.93;;
43363;SDS011;40636;52.424;-1.948;2023-08-08T00:35:25;1.35;;;0.85;;
43363;SDS011;40636;52.424;-1.948;2023-08-08T00:37:52;2.17;;;1.10;;
43363;SDS011;40636;52.424;-1.948;2023-08-08T00:40:18;1.95;;;1.13;;
43363;SDS011;40636;52.424;-1.948;2023-08-08T00:42:45;1.02;;;0.85;;
43363;SDS011;40636;52.424;-1.948;2023-08-08T00:45:12;1.75;;;1.20;;
43363;SDS011;40636;52.424;-1.948;2023-08-08T00:47:38;1.10;;;1.00;;
43363;SDS011;40636;52.424;-1.948;2023-08-08T00:50:05;2.20;;;0.90;;
43363;SDS011;40636;52.424;-1.948;2023-08-08T00:52:33;3.22;;;0.93;;
43363;SDS011;40636;52.424;-1.948;2023-08-08T00:55:00;2.28;;;1.10;;
43363;SDS011;40636;52.424;-1.948;2023-08-08T00:57:28;2.10;;;1.20;;
43363;SDS011;40636;52.424;-1.948;2023-08-08T00:59:54;3.45;;;1.27;;
43363;SDS011;40636;52.424;-1.948;2023-08-08T01:02:21;1.27;;;0.90;;
43363;SDS011;40636;52.424;-1.948;2023-08-08T01:04:48;1.02;;;1.00;;
43363;SDS011;40636;52.424;-1.948;2023-08-08T01:10:36;1.55;;;1.08;;
43363;SDS011;40636;52.424;-1.948;2023-08-08T01:12:59;1.00;;;0.93;;
43363;SDS011;40636;52.424;-1.948;2023-08-08T01:15:28;3.35;;;1.15;;
43363;SDS011;40636;52.424;-1.948;2023-08-08T01:18:03;2.65;;;1.45;;
43363;SDS011;40636;52.424;-1.948;2023-08-08T01:20:32;1.15;;;1.05;;
43363;SDS011;40636;52.424;-1.948;2023-08-08T01:25:35;2.35;;;0.73;;
43363;SDS011;40636;52.424;-1.948;2023-08-08T01:28:03;1.23;;;0.93;;
43363;SDS011;40636;52.424;-1.948;2023-08-08T01:30:31;1.33;;;1.17;;
43363;SDS011;40636;52.424;-1.948;2023-08-08T01:32:58;1.65;;;1.02;;
43363;SDS011;40636;52.424;-1.948;2023-08-08T01:35:25;3.25;;;1.05;;
43363;SDS011;40636;52.424;-1.948;2023-08-08T01:38:10;3.70;;;1.50;;
43363;SDS011;40636;52.424;-1.948;2023-08-08T01:40:42;1.48;;;1.05;;
43363;SDS011;40636;52.424;-1.948;2023-08-08T01:43:11;4.88;;;1.20;;
43363;SDS011;40636;52.424;-1.948;2023-08-08T01:45:39;1.75;;;1.13;;
43363;SDS011;40636;52.424;-1.948;2023-08-08T01:48:07;2.60;;;1.52;;
43363;SDS011;40636;52.424;-1.948;2023-08-08T01:50:34;1.60;;;1.50;;
43363;SDS011;40636;52.424;-1.948;2023-08-08T01:53:01;0.80;;;0.80;;
43363;SDS011;40636;52.424;-1.948;2023-08-08T01:55:29;1.98;;;1.33;;
43363;SDS011;40636;52.424;-1.948;2023-08-08T01:57:56;4.57;;;1.40;;
43363;SDS011;40636;52.424;-1.948;2023-08-08T02:00:23;2.22;;;1.05;;
43363;SDS011;40636;52.424;-1.948;2023-08-08T02:02:52;2.95;;;1.27;;
43363;SDS011;40636;52.424;-1.948;2023-08-08T02:05:19;2.70;;;1.10;;
43363;SDS011;40636;52.424;-1.948;2023-08-08T02:07:46;1.73;;;1.10;;
43363;SDS011;40636;52.424;-1.948;2023-08-08T02:10:13;1.38;;;1.25;;
43363;SDS011;40636;52.424;-1.948;2023-08-08T02:12:40;1.52;;;1.10;;
43363;SDS011;40636;52.424;-1.948;2023-08-08T02:15:06;2.17;;;1.38;;
43363;SDS011;40636;52.424;-1.948;2023-08-08T02:17:35;1.60;;;1.10;;
43363;SDS011;40636;52.424;-1.948;2023-08-08T02:20:04;1.58;;;1.35;;
43363;SDS011;40636;52.424;-1.948;2023-08-08T02:22:33;2.40;;;1.60;;
43363;SDS011;40636;52.424;-1.948;2023-08-08T02:25:00;1.95;;;1.35;;
43363;SDS011;40636;52.424;-1.948;2023-08-08T02:27:26;4.40;;;1.60;;
43363;SDS011;40636;52.424;-1.948;2023-08-08T02:29:53;3.00;;;1.35;;
43363;SDS011;40636;52.424;-1.948;2023-08-08T02:32:20;3.63;;;1.48;;
43363;SDS011;40636;52.424;-1.948;2023-08-08T02:34:47;2.17;;;1.50;;
43363;SDS011;40636;52.424;-1.948;2023-08-08T02:37:13;2.38;;;1.42;;
43363;SDS011;40636;52.424;-1.948;2023-08-08T02:39:42;2.20;;;1.50;;
43363;SDS011;40636;52.424;-1.948;2023-08-08T02:42:10;2.00;;;1.42;;
43363;SDS011;40636;52.424;-1.948;2023-08-08T02:44:36;4.07;;;1.45;;
43363;SDS011;40636;52.424;-1.948;2023-08-08T02:47:03;3.47;;;1.17;;
43363;SDS011;40636;52.424;-1.948;2023-08-08T02:49:30;2.60;;;1.38;;
43363;SDS011;40636;52.424;-1.948;2023-08-08T02:52:00;5.85;;;1.70;;
43363;SDS011;40636;52.424;-1.948;2023-08-08T02:54:27;2.67;;;1.40;;
43363;SDS011;40636;52.424;-1.948;2023-08-08T02:56:54;4.03;;;1.35;;
43363;SDS011;40636;52.424;-1.948;2023-08-08T02:59:21;1.50;;;1.27;;
43363;SDS011;40636;52.424;-1.948;2023-08-08T03:01:48;3.83;;;1.35;;
43363;SDS011;40636;52.424;-1.948;2023-08-08T03:04:15;5.57;;;1.30;;
43363;SDS011;40636;52.424;-1.948;2023-08-08T03:06:43;1.83;;;1.10;;
43363;SDS011;40636;52.424;-1.948;2023-08-08T03:09:09;1.65;;;1.20;;
43363;SDS011;40636;52.424;-1.948;2023-08-08T03:11:36;3.53;;;1.48;;
43363;SDS011;40636;52.424;-1.948;2023-08-08T03:14:04;3.58;;;1.30;;
43363;SDS011;40636;52.424;-1.948;2023-08-08T03:16:30;10.38;;;1.92;;
43363;SDS011;40636;52.424;-1.948;2023-08-08T03:18:57;2.70;;;1.40;;
43363;SDS011;40636;52.424;-1.948;2023-08-08T03:21:25;2.90;;;1.65;;
43363;SDS011;40636;52.424;-1.948;2023-08-08T03:23:51;2.13;;;1.35;;
43363;SDS011;40636;52.424;-1.948;2023-08-08T03:26:19;2.88;;;1.70;;
43363;SDS011;40636;52.424;-1.948;2023-08-08T03:28:46;2.35;;;1.38;;
43363;SDS011;40636;52.424;-1.948;2023-08-08T03:31:16;2.45;;;1.20;;
43363;SDS011;40636;52.424;-1.948;2023-08-08T03:33:46;5.30;;;1.88;;
43363;SDS011;40636;52.424;-1.948;2023-08-08T03:36:14;3.03;;;1.35;;
43363;SDS011;40636;52.424;-1.948;2023-08-08T03:38:41;3.85;;;1.70;;
43363;SDS011;40636;52.424;-1.948;2023-08-08T03:41:12;3.65;;;1.52;;
43363;SDS011;40636;52.424;-1.948;2023-08-08T03:43:40;3.33;;;1.60;;
43363;SDS011;40636;52.424;-1.948;2023-08-08T03:46:07;1.90;;;1.48;;
43363;SDS011;40636;52.424;-1.948;2023-08-08T03:48:34;3.05;;;1.23;;
43363;SDS011;40636;52.424;-1.948;2023-08-08T03:51:00;1.92;;;1.80;;
43363;SDS011;40636;52.424;-1.948;2023-08-08T03:53:27;5.47;;;1.73;;
43363;SDS011;40636;52.424;-1.948;2023-08-08T03:55:54;2.83;;;1.58;;
43363;SDS011;40636;52.424;-1.948;2023-08-08T03:58:21;2.03;;;1.35;;
43363;SDS011;40636;52.424;-1.948;2023-08-08T04:00:47;4.15;;;1.63;;
43363;SDS011;40636;52.424;-1.948;2023-08-08T04:03:15;4.70;;;1.40;;
43363;SDS011;40636;52.424;-1.948;2023-08-08T04:05:46;2.00;;;1.27;;
43363;SDS011;40636;52.424;-1.948;2023-08-08T04:08:13;3.67;;;1.70;;
43363;SDS011;40636;52.424;-1.948;2023-08-08T04:10:41;5.68;;;2.20;;
43363;SDS011;40636;52.424;-1.948;2023-08-08T04:13:08;1.45;;;1.10;;
43363;SDS011;40636;52.424;-1.948;2023-08-08T04:15:35;2.80;;;1.25;;
43363;SDS011;40636;52.424;-1.948;2023-08-08T04:18:02;2.28;;;1.63;;
43363;SDS011;40636;52.424;-1.948;2023-08-08T04:20:29;3.08;;;1.52;;
43363;SDS011;40636;52.424;-1.948;2023-08-08T04:22:55;2.00;;;1.33;;
43363;SDS011;40636;52.424;-1.948;2023-08-08T04:25:22;2.50;;;1.65;;
43363;SDS011;40636;52.424;-1.948;2023-08-08T04:27:49;2.28;;;1.70;;
43363;SDS011;40636;52.424;-1.948;2023-08-08T04:30:16;3.00;;;1.50;;
43363;SDS011;40636;52.424;-1.948;2023-08-08T04:32:43;2.28;;;1.67;;
43363;SDS011;40636;52.424;-1.948;2023-08-08T04:35:09;1.90;;;1.50;;
43363;SDS011;40636;52.424;-1.948;2023-08-08T04:37:36;2.22;;;1.52;;
43363;SDS011;40636;52.424;-1.948;2023-08-08T04:40:03;5.85;;;1.70;;
43363;SDS011;40636;52.424;-1.948;2023-08-08T04:42:30;3.58;;;1.48;;
43363;SDS011;40636;52.424;-1.948;2023-08-08T04:44:57;2.63;;;1.50;;
43363;SDS011;40636;52.424;-1.948;2023-08-08T04:47:24;3.53;;;1.48;;
43363;SDS011;40636;52.424;-1.948;2023-08-08T04:49:50;1.30;;;1.20;;
43363;SDS011;40636;52.424;-1.948;2023-08-08T04:52:17;2.30;;;1.40;;
43363;SDS011;40636;52.424;-1.948;2023-08-08T04:54:44;5.28;;;1.42;;
43363;SDS011;40636;52.424;-1.948;2023-08-08T04:57:11;2.67;;;1.60;;
43363;SDS011;40636;52.424;-1.948;2023-08-08T04:59:37;4.47;;;1.80;;
43363;SDS011;40636;52.424;-1.948;2023-08-08T05:02:04;3.53;;;1.52;;
43363;SDS011;40636;52.424;-1.948;2023-08-08T05:04:31;4.63;;;1.52;;
43363;SDS011;40636;52.424;-1.948;2023-08-08T05:06:59;3.47;;;1.65;;
43363;SDS011;40636;52.424;-1.948;2023-08-08T05:09:25;1.80;;;1.27;;
43363;SDS011;40636;52.424;-1.948;2023-08-08T05:11:55;3.10;;;1.33;;
43363;SDS011;40636;52.424;-1.948;2023-08-08T05:14:21;2.00;;;1.50;;
43363;SDS011;40636;52.424;-1.948;2023-08-08T05:16:48;4.18;;;1.42;;
43363;SDS011;40636;52.424;-1.948;2023-08-08T05:19:15;2.70;;;1.48;;
43363;SDS011;40636;52.424;-1.948;2023-08-08T05:21:41;1.80;;;1.40;;
43363;SDS011;40636;52.424;-1.948;2023-08-08T05:24:09;1.95;;;1.63;;
43363;SDS011;40636;52.424;-1.948;2023-08-08T05:26:36;1.13;;;1.00;;
43363;SDS011;40636;52.424;-1.948;2023-08-08T05:29:02;5.88;;;1.50;;
43363;SDS011;40636;52.424;-1.948;2023-08-08T05:31:29;2.65;;;1.30;;
43363;SDS011;40636;52.424;-1.948;2023-08-08T05:34:00;1.88;;;1.45;;
43363;SDS011;40636;52.424;-1.948;2023-08-08T05:36:27;2.65;;;1.17;;
43363;SDS011;40636;52.424;-1.948;2023-08-08T05:38:54;1.95;;;1.55;;
43363;SDS011;40636;52.424;-1.948;2023-08-08T05:41:20;4.32;;;1.88;;
43363;SDS011;40636;52.424;-1.948;2023-08-08T05:43:47;4.35;;;2.08;;
43363;SDS011;40636;52.424;-1.948;2023-08-08T05:46:14;2.38;;;1.38;;
43363;SDS011;40636;52.424;-1.948;2023-08-08T05:48:41;2.28;;;1.65;;
43363;SDS011;40636;52.424;-1.948;2023-08-08T05:51:07;1.55;;;1.20;;
43363;SDS011;40636;52.424;-1.948;2023-08-08T05:53:34;2.25;;;1.60;;
43363;SDS011;40636;52.424;-1.948;2023-08-08T05:56:01;3.92;;;1.63;;
43363;SDS011;40636;52.424;-1.948;2023-08-08T05:58:28;1.83;;;1.23;;
43363;SDS011;40636;52.424;-1.948;2023-08-08T06:00:54;5.90;;;2.33;;
43363;SDS011;40636;52.424;-1.948;2023-08-08T06:03:21;3.05;;;1.85;;
43363;SDS011;40636;52.424;-1.948;2023-08-08T06:05:48;3.03;;;1.60;;
43363;SDS011;40636;52.424;-1.948;2023-08-08T06:08:14;1.88;;;1.20;;
43363;SDS011;40636;52.424;-1.948;2023-08-08T06:10:42;3.08;;;1.77;;
43363;SDS011;40636;52.424;-1.948;2023-08-08T06:13:09;3.00;;;1.35;;
43363;SDS011;40636;52.424;-1.948;2023-08-08T06:15:36;2.90;;;1.58;;
43363;SDS011;40636;52.424;-1.948;2023-08-08T06:18:03;4.10;;;1.55;;
43363;SDS011;40636;52.424;-1.948;2023-08-08T06:20:31;5.40;;;1.83;;
43363;SDS011;40636;52.424;-1.948;2023-08-08T06:22:58;3.50;;;1.25;;
43363;SDS011;40636;52.424;-1.948;2023-08-08T06:25:26;1.73;;;1.42;;
43363;SDS011;40636;52.424;-1.948;2023-08-08T06:27:54;7.10;;;1.80;;
43363;SDS011;40636;52.424;-1.948;2023-08-08T06:30:21;3.47;;;1.25;;
43363;SDS011;40636;52.424;-1.948;2023-08-08T06:32:48;1.50;;;1.38;;
43363;SDS011;40636;52.424;-1.948;2023-08-08T06:35:15;4.38;;;1.20;;
43363;SDS011;40636;52.424;-1.948;2023-08-08T06:37:43;3.97;;;1.63;;
43363;SDS011;40636;52.424;-1.948;2023-08-08T06:40:10;1.77;;;1.55;;
43363;SDS011;40636;52.424;-1.948;2023-08-08T06:42:37;1.60;;;1.10;;
43363;SDS011;40636;52.424;-1.948;2023-08-08T06:45:04;1.92;;;1.40;;
43363;SDS011;40636;52.424;-1.948;2023-08-08T06:47:32;3.15;;;1.23;;
43363;SDS011;40636;52.424;-1.948;2023-08-08T06:49:58;6.32;;;1.58;;
43363;SDS011;40636;52.424;-1.948;2023-08-08T06:52:25;3.33;;;1.55;;
43363;SDS011;40636;52.424;-1.948;2023-08-08T06:54:52;1.80;;;1.33;;
43363;SDS011;40636;52.424;-1.948;2023-08-08T06:57:19;3.65;;;1.45;;
43363;SDS011;40636;52.424;-1.948;2023-08-08T06:59:46;4.10;;;2.70;;
43363;SDS011;40636;52.424;-1.948;2023-08-08T07:02:17;2.55;;;1.85;;
43363;SDS011;40636;52.424;-1.948;2023-08-08T07:04:45;1.50;;;1.20;;
43363;SDS011;40636;52.424;-1.948;2023-08-08T07:07:12;4.15;;;1.55;;
43363;SDS011;40636;52.424;-1.948;2023-08-08T07:09:39;6.85;;;1.35;;
43363;SDS011;40636;52.424;-1.948;2023-08-08T07:12:06;2.65;;;1.23;;
43363;SDS011;40636;52.424;-1.948;2023-08-08T07:14:33;1.45;;;1.35;;
43363;SDS011;40636;52.424;-1.948;2023-08-08T07:16:59;3.60;;;1.73;;
43363;SDS011;40636;52.424;-1.948;2023-08-08T07:19:26;3.47;;;1.52;;
43363;SDS011;40636;52.424;-1.948;2023-08-08T07:21:53;2.58;;;1.45;;
43363;SDS011;40636;52.424;-1.948;2023-08-08T07:24:20;1.80;;;0.85;;
43363;SDS011;40636;52.424;-1.948;2023-08-08T07:26:48;3.42;;;1.60;;
43363;SDS011;40636;52.424;-1.948;2023-08-08T07:29:29;4.70;;;1.20;;
43363;SDS011;40636;52.424;-1.948;2023-08-08T07:31:57;1.58;;;1.15;;
43363;SDS011;40636;52.424;-1.948;2023-08-08T07:34:25;3.22;;;1.27;;
43363;SDS011;40636;52.424;-1.948;2023-08-08T07:36:52;2.75;;;1.45;;
43363;SDS011;40636;52.424;-1.948;2023-08-08T07:39:19;5.75;;;1.40;;
43363;SDS011;40636;52.424;-1.948;2023-08-08T07:41:46;1.15;;;1.02;;
43363;SDS011;40636;52.424;-1.948;2023-08-08T07:44:13;2.67;;;1.70;;
43363;SDS011;40636;52.424;-1.948;2023-08-08T07:46:40;1.83;;;1.38;;
43363;SDS011;40636;52.424;-1.948;2023-08-08T07:49:06;1.48;;;1.38;;
43363;SDS011;40636;52.424;-1.948;2023-08-08T07:51:35;2.72;;;1.17;;
43363;SDS011;40636;52.424;-1.948;2023-08-08T07:54:02;2.25;;;1.35;;
43363;SDS011;40636;52.424;-1.948;2023-08-08T07:56:29;3.72;;;1.60;;
43363;SDS011;40636;52.424;-1.948;2023-08-08T07:58:56;3.78;;;1.80;;
43363;SDS011;40636;52.424;-1.948;2023-08-08T08:01:24;3.53;;;1.60;;
43363;SDS011;40636;52.424;-1.948;2023-08-08T08:03:53;6.00;;;1.48;;
43363;SDS011;40636;52.424;-1.948;2023-08-08T08:06:20;2.53;;;1.50;;
43363;SDS011;40636;52.424;-1.948;2023-08-08T08:08:47;2.72;;;1.25;;
43363;SDS011;40636;52.424;-1.948;2023-08-08T08:11:18;3.47;;;1.75;;
43363;SDS011;40636;52.424;-1.948;2023-08-08T08:13:46;2.67;;;1.70;;
43363;SDS011;40636;52.424;-1.948;2023-08-08T08:16:13;2.67;;;1.75;;
43363;SDS011;40636;52.424;-1.948;2023-08-08T08:18:40;4.18;;;1.40;;
43363;SDS011;40636;52.424;-1.948;2023-08-08T08:21:07;3.88;;;1.60;;
43363;SDS011;40636;52.424;-1.948;2023-08-08T08:23:34;3.33;;;1.45;;
43363;SDS011;40636;52.424;-1.948;2023-08-08T08:26:01;2.95;;;2.05;;
43363;SDS011;40636;52.424;-1.948;2023-08-08T08:28:28;2.03;;;1.65;;
43363;SDS011;40636;52.424;-1.948;2023-08-08T08:31:06;4.13;;;1.42;;
43363;SDS011;40636;52.424;-1.948;2023-08-08T08:33:34;4.28;;;1.85;;
43363;SDS011;40636;52.424;-1.948;2023-08-08T08:36:01;2.97;;;1.60;;
43363;SDS011;40636;52.424;-1.948;2023-08-08T08:38:27;3.08;;;1.73;;
43363;SDS011;40636;52.424;-1.948;2023-08-08T08:40:55;1.88;;;1.20;;
43363;SDS011;40636;52.424;-1.948;2023-08-08T08:43:24;2.42;;;1.30;;
43363;SDS011;40636;52.424;-1.948;2023-08-08T08:45:52;1.85;;;1.33;;
43363;SDS011;40636;52.424;-1.948;2023-08-08T08:48:22;2.75;;;1.63;;
43363;SDS011;40636;52.424;-1.948;2023-08-08T08:50:53;2.88;;;1.63;;
43363;SDS011;40636;52.424;-1.948;2023-08-08T08:53:20;5.88;;;1.50;;
43363;SDS011;40636;52.424;-1.948;2023-08-08T08:55:48;2.10;;;1.60;;
43363;SDS011;40636;52.424;-1.948;2023-08-08T08:58:17;2.20;;;1.70;;
43363;SDS011;40636;52.424;-1.948;2023-08-08T09:00:49;2.70;;;2.03;;
43363;SDS011;40636;52.424;-1.948;2023-08-08T09:03:18;4.53;;;2.00;;
43363;SDS011;40636;52.424;-1.948;2023-08-08T09:05:46;3.17;;;2.90;;
43363;SDS011;40636;52.424;-1.948;2023-08-08T09:08:14;3.33;;;1.60;;
43363;SDS011;40636;52.424;-1.948;2023-08-08T09:10:41;2.45;;;1.52;;
43363;SDS011;40636;52.424;-1.948;2023-08-08T09:13:08;2.33;;;1.73;;
43363;SDS011;40636;52.424;-1.948;2023-08-08T09:15:35;1.98;;;1.23;;
43363;SDS011;40636;52.424;-1.948;2023-08-08T09:18:02;1.40;;;1.30;;
43363;SDS011;40636;52.424;-1.948;2023-08-08T09:20:30;4.25;;;1.45;;
43363;SDS011;40636;52.424;-1.948;2023-08-08T09:22:57;2.38;;;1.30;;
43363;SDS011;40636;52.424;-1.948;2023-08-08T09:25:25;0.73;;;0.73;;
43363;SDS011;40636;52.424;-1.948;2023-08-08T09:27:53;1.67;;;1.05;;
43363;SDS011;40636;52.424;-1.948;2023-08-08T09:30:20;3.05;;;1.00;;
43363;SDS011;40636;52.424;-1.948;2023-08-08T09:32:48;1.85;;;0.90;;
43363;SDS011;40636;52.424;-1.948;2023-08-08T09:35:15;1.73;;;1.05;;
43363;SDS011;40636;52.424;-1.948;2023-08-08T09:37:42;1.77;;;0.90;;
43363;SDS011;40636;52.424;-1.948;2023-08-08T09:40:09;2.53;;;1.15;;
43363;SDS011;40636;52.424;-1.948;2023-08-08T09:42:40;2.05;;;0.95;;
43363;SDS011;40636;52.424;-1.948;2023-08-08T09:45:08;0.85;;;0.70;;
43363;SDS011;40636;52.424;-1.948;2023-08-08T09:47:37;1.77;;;1.00;;
43363;SDS011;40636;52.424;-1.948;2023-08-08T09:50:05;1.23;;;0.90;;
43363;SDS011;40636;52.424;-1.948;2023-08-08T09:52:33;1.13;;;0.90;;
43363;SDS011;40636;52.424;-1.948;2023-08-08T09:55:01;0.80;;;0.73;;
43363;SDS011;40636;52.424;-1.948;2023-08-08T09:57:29;2.63;;;1.10;;
43363;SDS011;40636;52.424;-1.948;2023-08-08T10:00:00;1.15;;;1.02;;
43363;SDS011;40636;52.424;-1.948;2023-08-08T10:02:29;2.35;;;1.02;;
43363;SDS011;40636;52.424;-1.948;2023-08-08T10:04:56;3.80;;;1.70;;
43363;SDS011;40636;52.424;-1.948;2023-08-08T10:07:26;1.73;;;1.30;;
43363;SDS011;40636;52.424;-1.948;2023-08-08T10:09:53;3.47;;;0.90;;
43363;SDS011;40636;52.424;-1.948;2023-08-08T10:12:20;1.35;;;1.15;;
43363;SDS011;40636;52.424;-1.948;2023-08-08T10:14:50;1.25;;;0.93;;
43363;SDS011;40636;52.424;-1.948;2023-08-08T10:17:17;1.48;;;0.82;;
43363;SDS011;40636;52.424;-1.948;2023-08-08T10:19:49;2.67;;;0.82;;
43363;SDS011;40636;52.424;-1.948;2023-08-08T10:22:20;1.08;;;0.95;;
43363;SDS011;40636;52.424;-1.948;2023-08-08T10:24:54;2.78;;;1.00;;
43363;SDS011;40636;52.424;-1.948;2023-08-08T10:27:31;1.05;;;0.70;;
43363;SDS011;40636;52.424;-1.948;2023-08-08T10:30:06;1.70;;;0.82;;
43363;SDS011;40636;52.424;-1.948;2023-08-08T10:32:43;1.73;;;0.82;;
43363;SDS011;40636;52.424;-1.948;2023-08-08T10:35:13;1.17;;;0.82;;
43363;SDS011;40636;52.424;-1.948;2023-08-08T10:37:40;0.98;;;0.90;;
43363;SDS011;40636;52.424;-1.948;2023-08-08T10:40:08;1.00;;;0.80;;
43363;SDS011;40636;52.424;-1.948;2023-08-08T10:42:41;2.10;;;0.93;;
43363;SDS011;40636;52.424;-1.948;2023-08-08T10:45:10;1.25;;;0.63;;
43363;SDS011;40636;52.424;-1.948;2023-08-08T10:47:41;3.67;;;0.85;;
43363;SDS011;40636;52.424;-1.948;2023-08-08T10:57:57;1.92;;;0.90;;
43363;SDS011;40636;52.424;-1.948;2023-08-08T11:00:27;0.50;;;0.50;;
43363;SDS011;40636;52.424;-1.948;2023-08-08T11:02:58;0.98;;;0.68;;
43363;SDS011;40636;52.424;-1.948;2023-08-08T11:05:28;1.17;;;0.65;;
43363;SDS011;40636;52.424;-1.948;2023-08-08T11:07:58;1.42;;;0.98;;
43363;SDS011;40636;52.424;-1.948;2023-08-08T11:10:39;0.77;;;0.77;;
43363;SDS011;40636;52.424;-1.948;2023-08-08T11:13:08;1.83;;;0.98;;
43363;SDS011;40636;52.424;-1.948;2023-08-08T11:15:36;0.93;;;0.60;;
43363;SDS011;40636;52.424;-1.948;2023-08-08T11:18:05;0.90;;;0.90;;
43363;SDS011;40636;52.424;-1.948;2023-08-08T11:20:33;0.75;;;0.65;;
43363;SDS011;40636;52.424;-1.948;2023-08-08T11:23:01;1.65;;;0.70;;
43363;SDS011;40636;52.424;-1.948;2023-08-08T11:25:30;0.70;;;0.70;;
43363;SDS011;40636;52.424;-1.948;2023-08-08T11:27:58;1.85;;;0.65;;
43363;SDS011;40636;52.424;-1.948;2023-08-08T11:30:29;3.80;;;0.75;;
43363;SDS011;40636;52.424;-1.948;2023-08-08T11:32:59;1.17;;;0.80;;
43363;SDS011;40636;52.424;-1.948;2023-08-08T11:35:31;1.40;;;0.93;;
43363;SDS011;40636;52.424;-1.948;2023-08-08T11:38:00;2.72;;;0.80;;
43363;SDS011;40636;52.424;-1.948;2023-08-08T11:40:29;1.08;;;0.63;;
43363;SDS011;40636;52.424;-1.948;2023-08-08T11:42:57;1.15;;;0.75;;
43363;SDS011;40636;52.424;-1.948;2023-08-08T11:45:25;1.00;;;0.70;;
43363;SDS011;40636;52.424;-1.948;2023-08-08T11:47:52;1.23;;;0.63;;
43363;SDS011;40636;52.424;-1.948;2023-08-08T11:50:22;1.27;;;0.82;;
43363;SDS011;40636;52.424;-1.948;2023-08-08T11:52:52;1.50;;;0.70;;
43363;SDS011;40636;52.424;-1.948;2023-08-08T11:55:21;1.13;;;0.70;;
43363;SDS011;40636;52.424;-1.948;2023-08-08T11:57:58;1.10;;;0.90;;
43363;SDS011;40636;52.424;-1.948;2023-08-08T12:00:28;2.53;;;0.90;;
43363;SDS011;40636;52.424;-1.948;2023-08-08T12:02:57;5.03;;;1.05;;
43363;SDS011;40636;52.424;-1.948;2023-08-08T12:05:26;0.85;;;0.85;;
43363;SDS011;40636;52.424;-1.948;2023-08-08T12:07:53;0.88;;;0.60;;
43363;SDS011;40636;52.424;-1.948;2023-08-08T12:10:22;1.90;;;0.50;;
43363;SDS011;40636;52.424;-1.948;2023-08-08T12:12:53;0.75;;;0.60;;
43363;SDS011;40636;52.424;-1.948;2023-08-08T12:15:23;0.80;;;0.73;;
43363;SDS011;40636;52.424;-1.948;2023-08-08T12:17:50;0.60;;;0.60;;
43363;SDS011;40636;52.424;-1.948;2023-08-08T12:20:18;0.80;;;0.80;;
43363;SDS011;40636;52.424;-1.948;2023-08-08T12:22:47;1.48;;;0.70;;
43363;SDS011;40636;52.424;-1.948;2023-08-08T12:25:14;0.85;;;0.85;;
43363;SDS011;40636;52.424;-1.948;2023-08-08T12:27:43;1.30;;;0.50;;
43363;SDS011;40636;52.424;-1.948;2023-08-08T12:30:10;1.20;;;0.90;;
43363;SDS011;40636;52.424;-1.948;2023-08-08T12:32:40;0.98;;;0.70;;
43363;SDS011;40636;52.424;-1.948;2023-08-08T12:35:07;1.10;;;0.82;;
43363;SDS011;40636;52.424;-1.948;2023-08-08T12:37:34;0.95;;;0.93;;
43363;SDS011;40636;52.424;-1.948;2023-08-08T12:40:01;0.85;;;0.68;;
43363;SDS011;40636;52.424;-1.948;2023-08-08T12:42:53;3.88;;;0.82;;
43363;SDS011;40636;52.424;-1.948;2023-08-08T12:45:20;0.90;;;0.90;;
43363;SDS011;40636;52.424;-1.948;2023-08-08T12:47:47;2.17;;;1.08;;
43363;SDS011;40636;52.424;-1.948;2023-08-08T12:50:23;1.80;;;0.98;;
43363;SDS011;40636;52.424;-1.948;2023-08-08T12:53:05;1.98;;;1.10;;
43363;SDS011;40636;52.424;-1.948;2023-08-08T12:55:38;1.48;;;0.82;;
43363;SDS011;40636;52.424;-1.948;2023-08-08T12:58:05;2.92;;;1.38;;
43363;SDS011;40636;52.424;-1.948;2023-08-08T13:00:40;1.10;;;1.00;;
43363;SDS011;40636;52.424;-1.948;2023-08-08T13:03:07;3.58;;;2.05;;
43363;SDS011;40636;52.424;-1.948;2023-08-08T13:05:38;2.22;;;1.70;;
43363;SDS011;40636;52.424;-1.948;2023-08-08T13:08:09;2.28;;;1.67;;
43363;SDS011;40636;52.424;-1.948;2023-08-08T13:10:39;1.80;;;1.58;;
43363;SDS011;40636;52.424;-1.948;2023-08-08T13:13:07;2.28;;;2.08;;
43363;SDS011;40636;52.424;-1.948;2023-08-08T13:15:35;2.30;;;1.52;;
43363;SDS011;40636;52.424;-1.948;2023-08-08T13:18:02;1.73;;;1.45;;
43363;SDS011;40636;52.424;-1.948;2023-08-08T13:20:29;1.10;;;1.00;;
43363;SDS011;40636;52.424;-1.948;2023-08-08T13:22:57;2.08;;;1.38;;
43363;SDS011;40636;52.424;-1.948;2023-08-08T13:25:26;3.10;;;1.58;;
43363;SDS011;40636;52.424;-1.948;2023-08-08T13:27:57;2.30;;;1.25;;
43363;SDS011;40636;52.424;-1.948;2023-08-08T13:30:24;1.50;;;0.95;;
43363;SDS011;40636;52.424;-1.948;2023-08-08T13:32:54;1.00;;;0.82;;
43363;SDS011;40636;52.424;-1.948;2023-08-08T13:35:22;1.30;;;0.98;;
43363;SDS011;40636;52.424;-1.948;2023-08-08T13:37:49;1.85;;;1.20;;
43363;SDS011;40636;52.424;-1.948;2023-08-08T13:40:19;1.10;;;1.00;;
43363;SDS011;40636;52.424;-1.948;2023-08-08T13:42:46;1.25;;;1.05;;
43363;SDS011;40636;52.424;-1.948;2023-08-08T13:45:14;1.67;;;0.93;;
43363;SDS011;40636;52.424;-1.948;2023-08-08T13:47:42;1.20;;;0.90;;
43363;SDS011;40636;52.424;-1.948;2023-08-08T13:50:09;1.08;;;0.90;;
43363;SDS011;40636;52.424;-1.948;2023-08-08T13:52:39;1.40;;;0.80;;
43363;SDS011;40636;52.424;-1.948;2023-08-08T13:55:07;1.02;;;0.60;;
43363;SDS011;40636;52.424;-1.948;2023-08-08T13:57:35;1.20;;;0.70;;
43363;SDS011;40636;52.424;-1.948;2023-08-08T14:00:02;1.48;;;1.38;;
43363;SDS011;40636;52.424;-1.948;2023-08-08T14:02:30;1.45;;;0.93;;
43363;SDS011;40636;52.424;-1.948;2023-08-08T14:04:58;0.98;;;0.85;;
43363;SDS011;40636;52.424;-1.948;2023-08-08T14:07:25;0.75;;;0.75;;
43363;SDS011;40636;52.424;-1.948;2023-08-08T14:09:52;1.40;;;0.75;;
43363;SDS011;40636;52.424;-1.948;2023-08-08T14:12:19;0.80;;;0.80;;
43363;SDS011;40636;52.424;-1.948;2023-08-08T14:14:50;0.95;;;0.80;;
43363;SDS011;40636;52.424;-1.948;2023-08-08T14:17:17;0.85;;;0.75;;
43363;SDS011;40636;52.424;-1.948;2023-08-08T14:19:44;3.45;;;0.90;;
43363;SDS011;40636;52.424;-1.948;2023-08-08T14:22:11;1.13;;;0.80;;
43363;SDS011;40636;52.424;-1.948;2023-08-08T14:24:38;0.98;;;0.80;;
43363;SDS011;40636;52.424;-1.948;2023-08-08T14:27:06;1.85;;;0.88;;
43363;SDS011;40636;52.424;-1.948;2023-08-08T14:29:34;0.98;;;0.93;;
43363;SDS011;40636;52.424;-1.948;2023-08-08T14:32:01;1.50;;;1.15;;
43363;SDS011;40636;52.424;-1.948;2023-08-08T14:34:29;1.10;;;0.80;;
43363;SDS011;40636;52.424;-1.948;2023-08-08T14:37:04;1.75;;;0.70;;
43363;SDS011;40636;52.424;-1.948;2023-08-08T14:39:34;1.10;;;0.95;;
43363;SDS011;40636;52.424;-1.948;2023-08-08T14:42:00;1.23;;;0.80;;
43363;SDS011;40636;52.424;-1.948;2023-08-08T14:44:30;0.70;;;0.70;;
43363;SDS011;40636;52.424;-1.948;2023-08-08T14:46:57;0.98;;;0.60;;
43363;SDS011;40636;52.424;-1.948;2023-08-08T14:49:25;2.72;;;0.82;;
43363;SDS011;40636;52.424;-1.948;2023-08-08T14:51:52;1.42;;;0.68;;